Time;durP1;ratioP1;P1;durP2;ratioP2;P2;SDS_P1;SDS_P2;PMS_P1;PMS_P2;Temp;Humidity;BMP_temperature;BMP_pressure;BME280_temperature;BME280_humidity;BME280_pressure;Samples;Min_cycle;Max_cycle;Signal;HPM_P1;HPM_P2
2022/06/11 00:00:13;;;;;;;6.65;2.03;;;16.00;99.90;;;;;;5093008;28;20541;-88
2022/06/11 00:02:39;;;;;;;8.77;2.30;;;15.90;99.90;;;;;;5076495;28;20052;-87
2022/06/11 00:05:06;;;;;;;8.70;2.47;;;15.90;99.90;;;;;;5093167;28;20125;-88
2022/06/11 00:07:32;;;;;;;11.65;2.00;;;15.80;99.90;;;;;;5093017;28;20048;-86
2022/06/11 00:09:58;;;;;;;7.07;1.80;;;15.70;99.90;;;;;;5092695;28;20093;-88
2022/06/11 00:12:26;;;;;;;6.38;1.90;;;15.80;99.90;;;;;;5093148;28;20044;-88
2022/06/11 00:14:51;;;;;;;8.80;2.63;;;15.90;99.90;;;;;;5092783;28;20540;-88
2022/06/11 00:17:20;;;;;;;6.97;1.73;;;15.70;99.90;;;;;;5092712;28;20036;-88
2022/06/11 00:19:46;;;;;;;7.95;1.95;;;15.60;99.90;;;;;;5076028;28;20044;-88
2022/06/11 00:22:14;;;;;;;8.00;1.85;;;15.60;99.90;;;;;;5092734;28;20035;-88
2022/06/11 00:24:40;;;;;;;6.72;2.10;;;15.50;99.90;;;;;;5092777;28;20047;-89
2022/06/11 00:27:07;;;;;;;9.10;2.05;;;15.50;99.90;;;;;;5092753;28;20127;-88
2022/06/11 00:29:34;;;;;;;8.90;2.17;;;15.50;99.90;;;;;;5076016;28;20123;-88
2022/06/11 00:32:00;;;;;;;8.45;1.70;;;15.40;99.90;;;;;;5091907;28;20077;-88
2022/06/11 00:34:27;;;;;;;9.77;1.98;;;15.40;99.90;;;;;;5092638;28;20118;-88
2022/06/11 00:36:52;;;;;;;10.85;2.30;;;15.40;99.90;;;;;;5075873;28;20173;-88
2022/06/11 00:39:21;;;;;;;6.45;1.80;;;15.40;99.90;;;;;;5092449;28;20497;-87
2022/06/11 00:42:06;;;;;;;7.65;2.20;;;15.40;99.90;;;;;;5092623;28;20048;-88
2022/06/11 00:44:33;;;;;;;7.00;1.60;;;15.30;99.90;;;;;;5092697;28;20113;-88
2022/06/11 00:47:04;;;;;;;8.70;1.90;;;15.30;99.90;;;;;;5092702;28;20364;-87
2022/06/11 00:49:53;;;;;;;9.75;2.33;;;15.30;99.90;;;;;;5092503;28;20521;-88
2022/06/11 00:52:30;;;;;;;7.97;2.15;;;15.30;99.90;;;;;;5092556;28;20052;-89
2022/06/11 00:54:59;;;;;;;10.10;2.55;;;15.20;99.90;;;;;;5092517;28;20048;-88
2022/06/11 00:57:28;;;;;;;8.73;2.08;;;15.20;99.90;;;;;;5075646;28;20051;-88
2022/06/11 00:59:58;;;;;;;6.75;1.95;;;15.00;99.90;;;;;;5092407;28;20044;-88
2022/06/11 01:02:24;;;;;;;7.78;2.00;;;15.00;99.90;;;;;;5075680;28;20048;-88
2022/06/11 01:04:54;;;;;;;5.68;1.80;;;15.00;99.90;;;;;;5092477;28;20077;-87
2022/06/11 01:07:24;;;;;;;8.95;2.20;;;15.00;99.90;;;;;;5092435;28;20503;-88
2022/06/11 01:10:12;;;;;;;6.18;2.30;;;14.90;99.90;;;;;;5091385;28;20048;-88
2022/06/11 01:13:12;;;;;;;7.88;2.08;;;15.00;99.90;;;;;;5092268;28;20178;-87
2022/06/11 01:15:46;;;;;;;6.63;2.13;;;14.90;99.90;;;;;;5092274;28;20101;-87
2022/06/11 01:18:30;;;;;;;7.78;2.17;;;14.90;99.90;;;;;;5092038;28;20055;-88
2022/06/11 01:21:19;;;;;;;6.30;2.27;;;14.80;99.90;;;;;;5075612;28;20044;-88
2022/06/11 01:24:11;;;;;;;8.35;2.40;;;14.80;99.90;;;;;;5092200;28;20044;-88
2022/06/11 01:26:39;;;;;;;10.30;2.45;;;14.80;99.90;;;;;;5092079;28;20122;-88
2022/06/11 01:29:19;;;;;;;5.57;2.20;;;14.70;99.90;;;;;;5075537;28;20048;-87
2022/06/11 01:31:53;;;;;;;9.68;2.50;;;14.70;99.90;;;;;;5075372;28;20502;-88
2022/06/11 01:34:41;;;;;;;13.30;2.60;;;14.70;99.90;;;;;;5092376;28;20123;-87
2022/06/11 01:37:16;;;;;;;9.30;2.53;;;14.70;99.90;;;;;;5091954;28;20052;-88
2022/06/11 01:40:19;;;;;;;8.38;3.42;;;14.50;99.90;;;;;;5093197;28;20479;-87
2022/06/11 01:42:54;;;;;;;7.68;2.35;;;14.60;99.90;;;;;;5061174;28;20056;-87
2022/06/11 01:45:43;;;;;;;7.60;2.50;;;14.50;99.90;;;;;;5072672;28;20521;-87
2022/06/11 01:48:15;;;;;;;6.18;2.45;;;14.50;99.90;;;;;;5077032;28;20049;-88
2022/06/11 01:50:46;;;;;;;10.98;3.13;;;14.50;99.90;;;;;;5057815;28;20086;-88
2022/06/11 01:53:48;;;;;;;9.85;2.70;;;14.50;99.90;;;;;;5057972;28;20059;-88
2022/06/11 01:56:50;;;;;;;10.15;3.30;;;14.40;99.90;;;;;;4998496;28;20083;-88
2022/06/11 01:59:19;;;;;;;12.77;2.95;;;14.30;99.90;;;;;;4982942;28;20057;-88
2022/06/11 02:01:45;;;;;;;9.27;2.85;;;14.30;99.90;;;;;;4998157;28;20485;-88
2022/06/11 02:04:33;;;;;;;9.65;2.90;;;14.30;99.90;;;;;;5014240;28;20038;-88
2022/06/11 02:07:04;;;;;;;9.88;3.30;;;14.20;99.90;;;;;;4959218;28;20057;-88
2022/06/11 02:09:46;;;;;;;8.00;2.90;;;14.30;99.90;;;;;;4958859;28;20402;-88
2022/06/11 02:12:28;;;;;;;10.23;3.15;;;14.30;99.90;;;;;;4975283;28;20137;-88
2022/06/11 02:15:02;;;;;;;13.98;3.33;;;14.30;99.90;;;;;;4959156;28;20117;-87
2022/06/11 02:17:32;;;;;;;8.02;2.70;;;14.30;99.90;;;;;;4965941;28;20084;-87
2022/06/11 02:20:03;;;;;;;9.98;2.70;;;14.30;99.90;;;;;;4997861;28;20494;-88
2022/06/11 02:22:54;;;;;;;10.40;3.20;;;14.40;99.90;;;;;;4997956;28;20042;-88
2022/06/11 02:25:39;;;;;;;6.45;2.60;;;14.30;99.90;;;;;;4997526;28;20144;-88
2022/06/11 02:28:10;;;;;;;8.93;2.90;;;14.30;99.90;;;;;;4997732;28;20053;-88
2022/06/11 02:30:39;;;;;;;11.00;3.30;;;14.20;99.90;;;;;;4997763;28;20289;-88
2022/06/11 02:33:09;;;;;;;19.55;3.60;;;14.40;99.90;;;;;;5008168;28;20068;-87
2022/06/11 02:35:37;;;;;;;10.90;3.60;;;14.40;99.90;;;;;;5017286;28;20099;-87
2022/06/11 02:38:05;;;;;;;12.75;3.70;;;14.20;99.90;;;;;;5000660;28;20061;-88
2022/06/11 02:40:47;;;;;;;10.43;3.72;;;14.30;99.90;;;;;;5016925;28;20045;-87
2022/06/11 02:43:13;;;;;;;10.20;3.50;;;14.30;99.90;;;;;;5028812;28;20139;-87
2022/06/11 02:45:39;;;;;;;10.80;3.78;;;14.20;99.90;;;;;;5077599;28;20123;-87
2022/06/11 02:48:05;;;;;;;10.80;3.45;;;14.20;99.90;;;;;;5095072;28;20079;-87
2022/06/11 02:50:33;;;;;;;11.85;3.05;;;14.20;99.90;;;;;;5094290;28;20052;-88
2022/06/11 02:53:01;;;;;;;7.60;3.20;;;14.10;99.90;;;;;;5094526;28;20075;-87
2022/06/11 02:55:27;;;;;;;9.93;2.88;;;14.10;99.90;;;;;;5093569;28;20044;-88
2022/06/11 02:57:53;;;;;;;11.30;2.95;;;14.10;99.90;;;;;;5077374;28;20040;-87
2022/06/11 03:00:23;;;;;;;8.90;2.53;;;14.40;99.90;;;;;;5094216;28;20093;-86
2022/06/11 03:02:49;;;;;;;12.85;3.10;;;14.00;99.90;;;;;;5093997;28;20079;-88
2022/06/11 03:05:19;;;;;;;7.95;2.85;;;14.30;99.90;;;;;;5094419;28;20052;-88
2022/06/11 03:07:45;;;;;;;12.98;4.07;;;14.00;99.90;;;;;;5094596;28;20047;-89
2022/06/11 03:10:13;;;;;;;13.82;3.80;;;14.10;99.90;;;;;;5094579;28;20047;-90
2022/06/11 03:12:39;;;;;;;11.40;2.92;;;14.10;99.90;;;;;;5094054;28;20086;-87
2022/06/11 03:15:05;;;;;;;12.70;3.25;;;14.20;99.90;;;;;;5094549;28;20032;-87
2022/06/11 03:17:31;;;;;;;10.52;2.63;;;14.20;99.90;;;;;;5093994;28;20305;-87
2022/06/11 03:19:57;;;;;;;10.27;2.90;;;14.20;99.90;;;;;;5076897;28;20036;-87
2022/06/11 03:22:23;;;;;;;12.77;3.10;;;14.30;99.90;;;;;;5076671;28;20407;-87
2022/06/11 03:24:53;;;;;;;11.73;2.97;;;14.20;99.90;;;;;;5078313;28;20036;-87
2022/06/11 03:27:19;;;;;;;11.95;2.67;;;14.30;99.90;;;;;;5094109;28;20121;-88
2022/06/11 03:29:46;;;;;;;12.70;2.90;;;14.50;99.90;;;;;;5093583;28;20502;-88
2022/06/11 03:32:11;;;;;;;11.90;2.78;;;14.30;99.90;;;;;;5093520;28;20044;-87
2022/06/11 03:34:37;;;;;;;10.95;3.22;;;14.30;99.90;;;;;;5077499;28;20051;-88
2022/06/11 03:37:04;;;;;;;13.13;2.97;;;14.40;99.90;;;;;;5076707;28;20055;-90
2022/06/11 03:39:30;;;;;;;12.25;2.72;;;14.40;99.90;;;;;;5076784;28;20131;-88
2022/06/11 03:41:56;;;;;;;15.10;2.78;;;14.40;99.90;;;;;;5093751;28;20135;-87
2022/06/11 03:44:22;;;;;;;12.40;3.20;;;14.40;99.90;;;;;;5093782;28;20047;-88
2022/06/11 03:46:48;;;;;;;11.30;2.97;;;14.60;99.90;;;;;;5093473;28;20052;-88
2022/06/11 03:49:16;;;;;;;13.90;2.90;;;14.40;99.90;;;;;;5093230;28;20473;-87
2022/06/11 03:51:43;;;;;;;10.45;2.53;;;14.40;99.90;;;;;;5076963;28;20093;-87
2022/06/11 03:54:15;;;;;;;14.43;3.35;;;14.40;99.90;;;;;;5093649;28;20399;-87
2022/06/11 03:56:41;;;;;;;12.93;3.20;;;14.30;99.90;;;;;;5076280;28;20093;-88
2022/06/11 03:59:08;;;;;;;12.77;3.13;;;14.30;99.90;;;;;;5093204;28;20040;-87
2022/06/11 04:01:34;;;;;;;11.98;3.58;;;14.30;99.90;;;;;;5093191;28;20040;-87
2022/06/11 04:04:05;;;;;;;12.75;3.53;;;14.30;99.90;;;;;;5092910;28;20036;-87
2022/06/11 04:06:35;;;;;;;11.13;2.78;;;14.30;99.90;;;;;;5108905;22;20079;-82
2022/06/11 04:09:04;;;;;;;11.73;2.58;;;14.30;99.90;;;;;;5082536;28;20056;-84
2022/06/11 04:11:30;;;;;;;13.75;2.88;;;14.30;99.90;;;;;;5082698;28;20052;-84
2022/06/11 04:13:56;;;;;;;12.75;2.75;;;14.40;99.90;;;;;;5083036;28;20556;-84
2022/06/11 04:16:32;;;;;;;14.93;3.63;;;14.40;99.90;;;;;;5066062;28;20040;-84
2022/06/11 04:19:01;;;;;;;12.52;2.95;;;14.40;99.90;;;;;;5082662;28;20097;-84
2022/06/11 04:21:28;;;;;;;13.23;3.63;;;14.50;99.90;;;;;;5080070;28;20060;-83
2022/06/11 04:23:56;;;;;;;15.40;3.15;;;14.50;99.90;;;;;;5066838;28;20117;-83
2022/06/11 04:26:28;;;;;;;12.45;3.30;;;14.50;99.90;;;;;;5080874;28;20052;-83
2022/06/11 04:28:55;;;;;;;16.08;3.08;;;14.60;99.90;;;;;;5084184;28;20063;-84
2022/06/11 04:31:21;;;;;;;11.02;2.85;;;14.60;99.90;;;;;;5081637;28;20078;-84
2022/06/11 04:33:48;;;;;;;15.45;3.67;;;14.70;99.90;;;;;;5082578;28;20040;-84
2022/06/11 04:36:16;;;;;;;12.80;3.78;;;14.70;99.90;;;;;;5083581;28;20056;-83
2022/06/11 04:38:42;;;;;;;12.25;3.33;;;14.70;99.90;;;;;;5066419;28;20045;-84
2022/06/11 04:41:08;;;;;;;14.55;3.80;;;14.80;99.90;;;;;;5082802;28;20040;-83
2022/06/11 04:43:35;;;;;;;17.05;3.75;;;14.90;99.90;;;;;;5082293;28;20052;-84
2022/06/11 04:46:01;;;;;;;16.75;3.70;;;14.90;99.90;;;;;;5065394;28;20119;-84
2022/06/11 04:48:28;;;;;;;13.77;3.42;;;15.10;99.90;;;;;;5083992;28;20104;-82
2022/06/11 04:50:53;;;;;;;17.23;4.70;;;15.10;99.90;;;;;;5087032;28;20047;-83
2022/06/11 04:53:19;;;;;;;20.88;5.40;;;15.10;99.90;;;;;;5086058;28;20049;-84
2022/06/11 04:55:45;;;;;;;13.27;3.22;;;15.20;99.90;;;;;;5085159;28;20064;-82
2022/06/11 04:58:11;;;;;;;15.65;4.07;;;15.20;99.90;;;;;;5082374;28;20044;-84
2022/06/11 05:00:37;;;;;;;16.58;3.85;;;15.40;99.90;;;;;;5084972;28;20078;-83
2022/06/11 05:03:03;;;;;;;21.85;4.43;;;15.40;99.90;;;;;;5084339;28;20033;-83
2022/06/11 05:05:30;;;;;;;18.75;4.10;;;15.40;99.90;;;;;;5084686;28;20049;-83
2022/06/11 05:07:56;;;;;;;20.27;4.47;;;15.30;99.90;;;;;;5082139;28;20506;-84
2022/06/11 05:10:27;;;;;;;16.35;4.25;;;15.30;99.90;;;;;;5080013;28;20057;-84
2022/06/11 05:12:53;;;;;;;22.98;4.55;;;15.40;99.90;;;;;;5081452;28;20120;-84
2022/06/11 05:15:19;;;;;;;22.20;4.10;;;15.40;99.90;;;;;;5082925;28;20135;-83
2022/06/11 05:17:45;;;;;;;18.77;4.13;;;15.60;99.90;;;;;;5081818;28;20075;-84
2022/06/11 05:20:13;;;;;;;19.90;4.10;;;15.60;99.90;;;;;;5086911;28;20041;-83
2022/06/11 05:22:40;;;;;;;17.08;4.22;;;15.60;99.90;;;;;;5087109;28;20043;-82
2022/06/11 05:25:07;;;;;;;21.75;4.57;;;15.70;99.90;;;;;;5088004;28;20040;-84
2022/06/11 05:27:34;;;;;;;21.35;4.85;;;15.70;99.90;;;;;;5085907;28;20054;-83
2022/06/11 05:30:06;;;;;;;23.33;4.72;;;15.80;99.90;;;;;;5089624;28;20036;-83
2022/06/11 05:32:35;;;;;;;12.85;3.65;;;15.80;99.90;;;;;;5086648;28;20083;-84
2022/06/11 05:35:04;;;;;;;17.45;3.83;;;15.90;99.90;;;;;;5088256;28;20071;-82
2022/06/11 05:37:30;;;;;;;17.20;4.93;;;15.90;99.90;;;;;;5083520;28;20044;-84
2022/06/11 05:39:56;;;;;;;21.45;4.60;;;16.00;99.90;;;;;;5069136;28;20049;-83
2022/06/11 05:42:25;;;;;;;17.27;3.80;;;16.20;99.90;;;;;;5083662;28;20040;-83
2022/06/11 05:44:51;;;;;;;20.50;4.00;;;16.10;99.90;;;;;;5085781;28;20135;-83
2022/06/11 05:47:19;;;;;;;20.00;4.15;;;16.10;99.90;;;;;;5084208;28;20395;-83
2022/06/11 05:49:48;;;;;;;16.30;3.90;;;16.10;99.90;;;;;;5083497;28;20063;-83
2022/06/11 05:52:18;;;;;;;18.48;4.05;;;16.20;99.90;;;;;;5086007;28;20044;-82
2022/06/11 05:54:46;;;;;;;25.38;4.72;;;16.30;99.90;;;;;;5084569;28;20067;-84
2022/06/11 05:57:15;;;;;;;18.95;4.32;;;16.40;99.90;;;;;;5084787;28;20050;-84
2022/06/11 05:59:45;;;;;;;23.15;4.75;;;16.40;99.90;;;;;;5085032;28;20047;-85
2022/06/11 06:02:14;;;;;;;21.95;4.32;;;16.50;99.90;;;;;;5085695;28;20045;-84
2022/06/11 06:04:39;;;;;;;19.67;4.32;;;16.50;99.90;;;;;;5085057;28;20097;-83
2022/06/11 06:07:06;;;;;;;21.88;4.50;;;16.80;99.90;;;;;;5083429;28;20096;-84
2022/06/11 06:09:33;;;;;;;20.00;4.18;;;16.50;99.90;;;;;;5085617;28;20052;-84
2022/06/11 06:11:59;;;;;;;17.38;4.28;;;16.70;99.90;;;;;;5083553;28;20119;-83
2022/06/11 06:14:25;;;;;;;18.50;4.05;;;16.60;99.90;;;;;;5081272;28;20079;-84
2022/06/11 06:16:51;;;;;;;18.52;3.90;;;16.80;99.90;;;;;;5084781;28;20044;-82
2022/06/11 06:19:17;;;;;;;20.83;4.40;;;16.80;99.90;;;;;;5087157;28;20044;-83
2022/06/11 06:21:43;;;;;;;18.23;4.18;;;16.90;99.90;;;;;;5082567;28;20051;-83
2022/06/11 06:24:10;;;;;;;17.98;4.00;;;16.90;99.90;;;;;;5082518;28;20100;-83
2022/06/11 06:26:36;;;;;;;19.05;4.30;;;17.10;99.90;;;;;;5065312;28;20067;-83
2022/06/11 06:29:03;;;;;;;19.73;3.88;;;17.10;99.90;;;;;;5083416;28;20072;-82
2022/06/11 06:31:29;;;;;;;16.30;4.05;;;17.00;99.90;;;;;;5063741;28;20049;-83
2022/06/11 06:33:58;;;;;;;20.00;4.57;;;17.10;99.90;;;;;;5083261;28;20078;-83
2022/06/11 06:36:25;;;;;;;20.13;4.93;;;17.30;99.90;;;;;;5081773;28;20655;-84
2022/06/11 06:38:51;;;;;;;20.90;4.30;;;17.30;99.90;;;;;;5080522;28;20128;-84
2022/06/11 06:41:17;;;;;;;16.15;3.90;;;17.40;99.90;;;;;;5085762;28;20044;-82
2022/06/11 06:43:43;;;;;;;21.42;4.28;;;17.50;99.90;;;;;;5081563;28;20137;-82
2022/06/11 06:46:10;;;;;;;23.30;4.25;;;17.60;99.90;;;;;;5081889;28;20049;-82
2022/06/11 06:48:35;;;;;;;20.08;4.15;;;17.60;99.90;;;;;;5078805;28;20056;-82
2022/06/11 06:51:01;;;;;;;19.25;3.88;;;17.70;99.90;;;;;;5081718;28;20423;-81
2022/06/11 06:53:28;;;;;;;19.60;4.07;;;17.80;99.90;;;;;;5080531;28;20052;-82
2022/06/11 06:55:54;;;;;;;20.20;4.07;;;17.90;99.90;;;;;;5083240;28;20075;-81
2022/06/11 06:58:20;;;;;;;16.90;4.53;;;18.00;99.90;;;;;;5084932;28;20048;-81
2022/06/11 07:00:46;;;;;;;17.42;3.33;;;17.90;99.90;;;;;;5082307;28;20040;-81
2022/06/11 07:03:12;;;;;;;16.33;3.80;;;18.00;99.90;;;;;;5081559;28;20396;-81
2022/06/11 07:05:39;;;;;;;19.42;3.72;;;18.00;99.90;;;;;;5081567;28;20045;-80
2022/06/11 07:08:06;;;;;;;16.55;3.97;;;18.10;99.90;;;;;;5083512;28;20061;-83
2022/06/11 07:10:32;;;;;;;16.98;4.20;;;18.10;99.90;;;;;;5077031;28;20110;-83
2022/06/11 07:12:58;;;;;;;16.88;3.50;;;18.10;99.90;;;;;;5077526;28;20091;-83
2022/06/11 07:15:24;;;;;;;15.52;3.63;;;18.30;99.90;;;;;;5079049;28;20048;-82
2022/06/11 07:18:02;;;;;;;18.50;4.03;;;18.30;99.90;;;;;;5082007;28;20428;-81
2022/06/11 07:20:32;;;;;;;17.33;3.58;;;18.20;99.90;;;;;;5079991;28;20044;-81
2022/06/11 07:23:12;;;;;;;19.98;4.47;;;18.20;99.90;;;;;;5063410;28;20052;-82
2022/06/11 07:25:40;;;;;;;16.00;3.72;;;18.30;99.90;;;;;;5080075;28;20037;-81
2022/06/11 07:28:12;;;;;;;16.48;3.65;;;18.40;99.90;;;;;;5081276;28;20074;-82
2022/06/11 07:30:41;;;;;;;16.13;3.42;;;18.50;99.90;;;;;;5081580;28;20095;-81
2022/06/11 07:33:15;;;;;;;15.32;3.75;;;18.50;99.90;;;;;;5083642;28;20048;-82
2022/06/11 07:35:41;;;;;;;16.08;3.80;;;18.60;99.90;;;;;;5081109;28;20388;-81
2022/06/11 07:38:10;;;;;;;17.98;3.80;;;18.60;99.90;;;;;;5081921;28;20036;-82
2022/06/11 07:40:36;;;;;;;16.30;3.85;;;18.70;99.90;;;;;;5078659;28;20052;-82
2022/06/11 07:43:02;;;;;;;14.45;3.65;;;18.80;99.90;;;;;;5082565;28;20044;-80
2022/06/11 07:45:27;;;;;;;16.90;3.72;;;19.00;99.90;;;;;;5080964;28;20041;-82
2022/06/11 07:47:53;;;;;;;19.58;3.70;;;18.90;99.90;;;;;;5082212;28;20052;-82
2022/06/11 07:50:20;;;;;;;16.23;3.92;;;19.00;99.90;;;;;;5080087;28;20048;-82
2022/06/11 07:52:46;;;;;;;19.27;4.00;;;19.00;99.90;;;;;;5077536;28;20474;-82
2022/06/11 07:55:11;;;;;;;18.33;3.35;;;19.10;99.90;;;;;;5081070;28;20102;-82
2022/06/11 07:57:39;;;;;;;14.00;3.55;;;19.10;99.90;;;;;;5079697;28;20044;-82
2022/06/11 08:00:07;;;;;;;14.07;4.10;;;19.10;99.90;;;;;;5078682;28;20049;-81
2022/06/11 08:02:33;;;;;;;17.38;4.10;;;19.10;99.90;;;;;;5082023;28;20033;-82
2022/06/11 08:04:59;;;;;;;14.30;3.53;;;19.10;99.90;;;;;;5079176;28;20048;-82
2022/06/11 08:07:27;;;;;;;15.13;3.28;;;19.30;99.90;;;;;;5078014;28;20395;-82
2022/06/11 08:09:53;;;;;;;14.75;3.03;;;19.30;99.90;;;;;;5079258;28;20044;-81
2022/06/11 08:12:19;;;;;;;12.77;3.17;;;19.40;99.90;;;;;;5080235;28;20037;-81
2022/06/11 08:14:45;;;;;;;17.52;3.20;;;19.40;99.90;;;;;;5078001;28;20094;-82
2022/06/11 08:17:10;;;;;;;14.77;2.97;;;19.60;99.90;;;;;;5074780;28;20391;-82
2022/06/11 08:19:36;;;;;;;13.73;3.13;;;19.80;99.90;;;;;;5076381;28;20041;-82
2022/06/11 08:22:02;;;;;;;13.93;3.50;;;19.80;99.90;;;;;;5077421;28;20131;-82
2022/06/11 08:24:28;;;;;;;14.98;3.38;;;19.90;99.90;;;;;;5079679;28;20048;-82
2022/06/11 08:26:53;;;;;;;14.00;3.53;;;19.80;99.90;;;;;;5076954;28;20099;-82
2022/06/11 08:29:19;;;;;;;12.25;3.17;;;19.80;99.90;;;;;;5077266;28;20040;-83
2022/06/11 08:31:45;;;;;;;10.70;2.50;;;19.90;99.90;;;;;;5081274;28;20072;-82
2022/06/11 08:34:10;;;;;;;13.95;3.60;;;19.90;99.90;;;;;;5079388;28;20079;-81
2022/06/11 08:36:36;;;;;;;19.17;4.05;;;19.90;99.90;;;;;;5079112;28;20071;-82
2022/06/11 08:39:02;;;;;;;14.00;3.00;;;19.90;99.90;;;;;;5076082;28;20045;-82
2022/06/11 08:41:33;;;;;;;13.13;3.00;;;20.00;99.90;;;;;;5078703;28;20040;-82
2022/06/11 08:44:04;;;;;;;15.07;3.33;;;20.20;99.90;;;;;;5082055;28;20052;-81
2022/06/11 08:46:34;;;;;;;13.02;3.33;;;20.20;99.90;;;;;;5078371;28;20068;-82
2022/06/11 08:49:05;;;;;;;13.00;2.70;;;20.10;99.90;;;;;;5078890;28;20059;-81
2022/06/11 08:51:42;;;;;;;15.70;2.75;;;20.10;99.90;;;;;;5062157;28;20036;-83
2022/06/11 08:54:11;;;;;;;14.40;3.20;;;20.10;99.90;;;;;;5080213;28;20067;-83
2022/06/11 08:56:58;;;;;;;11.00;2.80;;;20.10;99.90;;;;;;5082608;28;20063;-85
2022/06/11 08:59:26;;;;;;;13.02;2.90;;;20.20;99.90;;;;;;5085451;28;20066;-85
2022/06/11 09:02:17;;;;;;;10.63;2.30;;;20.30;99.90;;;;;;5085074;28;20047;-82
2022/06/11 09:05:16;;;;;;;13.20;2.50;;;20.20;99.90;;;;;;5085834;28;20070;-82
2022/06/11 09:07:59;;;;;;;15.27;3.17;;;20.40;99.90;;;;;;5084720;28;20052;-83
2022/06/11 09:10:31;;;;;;;14.85;3.17;;;20.20;99.90;;;;;;5085407;28;20045;-83
2022/06/11 09:13:07;;;;;;;12.27;3.17;;;20.20;99.90;;;;;;5084393;28;20441;-83
2022/06/11 09:15:40;;;;;;;8.73;2.22;;;20.30;99.90;;;;;;5084055;28;20056;-84
2022/06/11 09:18:31;;;;;;;12.95;2.70;;;20.30;99.90;;;;;;5083988;28;20074;-83
2022/06/11 09:21:06;;;;;;;12.18;2.85;;;20.50;99.90;;;;;;5084070;28;20104;-83
2022/06/11 09:23:55;;;;;;;8.93;2.80;;;20.50;99.90;;;;;;5084161;28;20066;-83
2022/06/11 09:26:30;;;;;;;10.43;2.17;;;20.60;99.90;;;;;;5081677;28;20040;-84
2022/06/11 09:29:42;;;;;;;11.00;2.72;;;20.70;99.90;;;;;;5084049;28;20048;-83
2022/06/11 09:32:39;;;;;;;9.60;2.20;;;20.80;99.90;;;;;;5042415;28;20061;-84
2022/06/11 09:35:13;;;;;;;10.50;2.40;;;20.80;99.90;;;;;;5039142;28;20088;-83
2022/06/11 09:37:48;;;;;;;13.27;3.05;;;20.90;99.90;;;;;;5042212;28;20041;-83
2022/06/11 09:40:37;;;;;;;14.20;2.67;;;20.90;99.90;;;;;;5023023;28;20064;-84
2022/06/11 09:43:05;;;;;;;8.68;2.65;;;21.20;99.90;;;;;;5040798;28;20049;-83
2022/06/11 09:45:31;;;;;;;12.32;2.72;;;21.30;99.90;;;;;;5041372;28;20049;-83
2022/06/11 09:48:26;;;;;;;10.43;2.10;;;21.30;99.90;;;;;;5042052;28;20045;-83
2022/06/11 09:51:24;;;;;;;11.05;2.40;;;21.40;99.90;;;;;;5041127;28;20052;-83
2022/06/11 09:54:17;;;;;;;14.32;2.75;;;21.40;99.90;;;;;;5005059;28;20057;-84
2022/06/11 09:56:52;;;;;;;13.90;2.95;;;21.60;99.90;;;;;;5040812;28;20045;-83
2022/06/11 09:59:46;;;;;;;12.07;2.70;;;21.60;99.90;;;;;;5021148;28;20053;-83
2022/06/11 10:02:37;;;;;;;9.20;2.55;;;21.70;99.90;;;;;;5037332;28;20049;-84
2022/06/11 10:05:08;;;;;;;11.35;3.40;;;21.80;99.90;;;;;;5021928;28;20041;-83
2022/06/11 10:07:41;;;;;;;10.20;2.90;;;22.00;99.90;;;;;;5048615;28;20067;-83
2022/06/11 10:10:13;;;;;;;8.30;2.50;;;22.00;99.90;;;;;;5083481;28;20041;-83
2022/06/11 10:13:00;;;;;;;11.35;2.75;;;22.00;99.90;;;;;;5081377;28;20040;-82
2022/06/11 10:15:38;;;;;;;10.85;2.60;;;21.90;99.90;;;;;;5083438;28;20567;-84
2022/06/11 10:18:25;;;;;;;11.57;2.92;;;21.90;99.90;;;;;;5079027;28;20071;-84
2022/06/11 10:21:00;;;;;;;12.15;2.70;;;22.10;99.90;;;;;;5081402;28;20032;-83
2022/06/11 10:23:45;;;;;;;9.88;2.45;;;22.10;99.90;;;;;;5065164;28;20050;-83
2022/06/11 10:26:30;;;;;;;9.63;2.42;;;22.10;99.90;;;;;;5084843;28;20038;-83
2022/06/11 10:29:10;;;;;;;10.65;2.38;;;21.90;99.90;;;;;;5083282;28;20120;-85
2022/06/11 10:31:45;;;;;;;11.80;2.78;;;22.10;99.90;;;;;;5082012;28;20052;-83
2022/06/11 10:34:22;;;;;;;14.98;2.88;;;22.10;99.90;;;;;;5081379;28;20078;-83
2022/06/11 10:37:08;;;;;;;11.45;2.53;;;22.40;99.90;;;;;;5082453;28;20045;-84
2022/06/11 10:39:39;;;;;;;12.35;2.80;;;22.40;99.90;;;;;;5080434;28;20048;-84
2022/06/11 10:42:19;;;;;;;11.27;2.17;;;22.30;99.90;;;;;;5081124;28;20048;-83
2022/06/11 10:44:50;;;;;;;11.60;2.60;;;22.40;99.90;;;;;;5064460;28;20123;-83
2022/06/11 10:47:23;;;;;;;12.90;2.80;;;22.40;99.90;;;;;;5065546;28;20045;-84
2022/06/11 10:50:07;;;;;;;10.40;2.58;;;22.40;99.90;;;;;;5083925;28;20040;-83
2022/06/11 10:52:46;;;;;;;10.03;2.50;;;22.40;99.90;;;;;;5081566;28;20051;-83
2022/06/11 10:55:18;;;;;;;9.90;2.78;;;22.50;99.90;;;;;;5081196;28;20041;-84
2022/06/11 10:57:48;;;;;;;7.85;2.15;;;22.50;99.90;;;;;;5080982;28;20048;-82
2022/06/11 11:00:30;;;;;;;10.07;2.10;;;22.60;99.90;;;;;;5081194;28;20044;-84
2022/06/11 11:03:25;;;;;;;11.13;2.50;;;22.60;99.90;;;;;;5082586;28;20468;-84
2022/06/11 11:06:07;;;;;;;11.20;2.95;;;22.60;99.90;;;;;;5080260;28;20060;-82
2022/06/11 11:08:51;;;;;;;10.07;2.58;;;22.70;99.90;;;;;;5062064;28;20052;-83
2022/06/11 11:11:16;;;;;;;7.70;2.88;;;22.70;99.90;;;;;;5081217;28;20048;-84
2022/06/11 11:13:45;;;;;;;10.10;2.40;;;22.60;99.90;;;;;;5081855;28;20041;-84
2022/06/11 11:16:19;;;;;;;7.97;2.40;;;22.70;99.90;;;;;;5079239;28;20097;-84
2022/06/11 11:18:53;;;;;;;9.52;2.63;;;22.70;99.90;;;;;;5081425;28;20060;-82
2022/06/11 11:21:32;;;;;;;10.48;2.83;;;22.70;99.90;;;;;;5082625;22;20083;-88
2022/06/11 11:24:11;;;;;;;14.25;3.13;;;22.70;99.90;;;;;;5106919;22;20126;-88
2022/06/11 11:26:45;;;;;;;9.00;2.50;;;22.90;99.90;;;;;;5117646;28;20051;-88
2022/06/11 11:29:49;;;;;;;9.32;2.35;;;22.90;99.90;;;;;;5110734;28;20044;-86
2022/06/11 11:32:39;;;;;;;13.52;2.65;;;22.90;99.90;;;;;;5050681;28;20492;-87
2022/06/11 11:35:18;;;;;;;15.85;3.03;;;22.50;99.90;;;;;;5055186;28;20045;-90
2022/06/11 11:38:05;;;;;;;10.95;2.60;;;22.40;99.90;;;;;;5051503;28;20091;-88
2022/06/11 11:41:01;;;;;;;10.85;2.38;;;22.90;99.90;;;;;;4987691;28;20054;-91
